マン島空港の過去48時間の天気

マン島空港 (Isle Of Man / Ronaldsway Airport)

現在時刻: 9/25 22:28 BST (9/25 21:28 UTC) 以下の時間は現地時間です。

過去48時間のMETAR気象情報
時間 風向 風速(m/s) 視程 気温(℃) 湿度(%) 気圧(hPa) 天気現象
25 21:50 西 12 10km以上 14 82 1007
25 20:50 西 9 10km以上 13 88 1009 弱い雨
25 20:20 西 10 9000m 14 82 1010 弱い雨
25 19:50 西 10 10km以上 14 77 1010
25 19:20 西 11 10km以上 14 88 1011
25 18:50 西南西 9 10km以上 14 82 1011
25 18:20 西南西 10 10km以上 14 82 1012
25 17:50 西南西 8 10km以上 14 82 1012
25 17:20 西南西 9 10km以上 14 82 1013
25 16:50 西 8 10km以上 14 82 1014
25 16:20 西 8 10km以上 14 77 1015
25 15:50 西南西 8 10km以上 14 82 1015
25 15:20 西 8 10km以上 14 77 1016
25 14:50 西 9 10km以上 14 77 1016
25 14:20 西 8 10km以上 14 77 1017
25 13:50 西 7 10km以上 14 77 1018
25 13:20 西 8 10km以上 14 72 1018
25 12:50 西 8 10km以上 14 67 1018
25 12:20 西 7 10km以上 14 67 1019
25 11:50 西 7 10km以上 14 67 1019
25 11:20 西 7 10km以上 14 72 1019
25 10:50 西 5 10km以上 13 77 1020
25 10:20 西北西 6 10km以上 13 72 1020
25 09:50 西北西 4 10km以上 13 77 1020
25 09:20 西北西 5 10km以上 13 77 1021
25 08:50 西北西 4 10km以上 13 72 1021
25 08:20 北西 4 10km以上 13 72 1021
25 07:50 西北西 3 10km以上 12 77 1021
25 07:20 西北西 3 10km以上 12 88 1022
25 06:50 西北西 3 10km以上 12 82 1021
25 06:20 西北西 2 10km以上 12 82 1022
25 05:50 北西 2 10km以上 10 87 1022
25 04:50 北北西 3 10km以上 9 87 1022
25 03:50 北北西 4 10km以上 10 82 1022
25 02:50 3 10km以上 10 82 1022
25 01:50 4 10km以上 11 82 1023
25 00:50 4 10km以上 11 82 1023
24 23:50 4 10km以上 11 82 1023
24 22:50 3 10km以上 11 76 1023
24 21:50 北北西 3 10km以上 11 76 1023
24 21:20 4 10km以上 12 71 1023
24 20:50 5 10km以上 11 76 1023
24 20:20 3 10km以上 12 71 1023
24 19:50 3 10km以上 12 71 1023
24 19:20 3 10km以上 12 71 1023
24 18:50 北北西 4 10km以上 13 67 1022
24 18:20 北北西 5 10km以上 14 63 1022
24 17:50 北北西 6 10km以上 14 59 1022
24 17:20 5 10km以上 15 55 1022
24 16:50 5 10km以上 15 51 1022
24 16:20 6 10km以上 15 55 1022
24 15:50 6 10km以上 15 55 1022
24 15:20 6 10km以上 15 59 1022
24 14:50 6 10km以上 15 55 1021
24 14:20 5 10km以上 15 59 1021
24 13:50 6 10km以上 15 59 1021
24 13:20 6 10km以上 15 59 1021
24 12:50 6 10km以上 15 63 1021
24 12:20 7 10km以上 14 63 1021
24 11:50 6 10km以上 14 67 1021
24 11:20 北北東 6 10km以上 14 63 1021
24 10:50 北北東 6 10km以上 13 72 1021
24 10:20 5 10km以上 14 72 1020
24 09:50 5 10km以上 13 72 1020
24 09:20 4 10km以上 12 77 1020
24 08:50 5 10km以上 11 82 1020
24 08:20 4 10km以上 11 82 1019
24 07:50 3 10km以上 11 82 1019
24 07:20 3 10km以上 11 82 1019
24 06:50 3 10km以上 10 87 1019
24 06:20 北北西 3 10km以上 11 82 1019
24 05:50 北西 4 10km以上 11 87 1018
24 05:20 北西 6 10km以上 11 87 1018
24 04:50 北西 3 10km以上 11 82 1018 弱いしゅう雨
24 03:50 北西 5 10km以上 10 87 1018
24 02:50 北北西 7 10km以上 11 82 1018 弱いしゅう雨
24 01:50 北北西 6 10km以上 11 87 1018 弱いしゅう雨
24 00:50 北西 4 3000m 11 87 1019 しゅう雨
23 23:50 不定 1 10km以上 12 77 1018 弱いしゅう雨
23 22:50 北西 3 10km以上 12 71 1018
EGNS 252050Z 26023KT 9999 BKN016 BKN030 14/11 Q1007
EGNS 251950Z 26017KT 9999 -RA SCT017 OVC035 13/11 Q1009
EGNS 251920Z 26019KT 9000 -RA SCT015 OVC018 14/11 Q1010 TEMPO BKN013
EGNS 251850Z 26019KT 9999 SCT017 OVC035 14/10 Q1010 TEMPO 7000 RA
EGNS 251820Z 26021KT 9999 FEW015 14/12 Q1011 NOSIG
EGNS 251750Z 25017KT 9999 FEW013 14/11 Q1011 NOSIG
EGNS 251720Z 25019KT 9999 FEW013 SCT022 BKN040 14/11 Q1012 NOSIG
EGNS 251650Z 25016KT 9999 FEW015 BKN025 14/11 Q1012 NOSIG
EGNS 251620Z 25017KT 9999 FEW015 OVC025 14/11 Q1013 NOSIG
EGNS 251550Z 26016KT 9999 SCT018 OVC027 14/11 Q1014 NOSIG
EGNS 251520Z 26015KT 9999 FEW015 OVC026 14/10 Q1015 NOSIG
EGNS 251450Z 25016KT 9999 FEW015 OVC032 14/11 Q1015 NOSIG
EGNS 251420Z 26015KT 9999 FEW015 OVC030 14/10 Q1016 NOSIG
EGNS 251350Z 26017KT 9999 FEW016 OVC030 14/10 Q1016 NOSIG
EGNS 251320Z 26015KT 9999 FEW016 BKN033 14/10 Q1017 NOSIG
EGNS 251250Z 26014KT 9999 FEW020 BKN034 14/10 Q1018 NOSIG
EGNS 251220Z 27015KT 9999 FEW020 BKN040 14/09 Q1018 NOSIG
EGNS 251150Z 27015KT 9999 SCT022 BKN036 14/08 Q1018 NOSIG
EGNS 251120Z 28014KT 9999 SCT025 BKN038 14/08 Q1019 NOSIG
EGNS 251050Z 28014KT 9999 FEW020 SCT038 14/08 Q1019 NOSIG
EGNS 251020Z 27013KT 9999 FEW020 SCT040 14/09 Q1019 NOSIG
EGNS 250950Z 27010KT 9999 FEW020 13/09 Q1020 NOSIG
EGNS 250920Z 29011KT 9999 FEW020 BKN045 13/08 Q1020 NOSIG
EGNS 250850Z 30008KT 9999 FEW018 BKN044 13/09 Q1020 NOSIG
EGNS 250820Z 29009KT 9999 FEW018 BKN040 13/09 Q1021 NOSIG
EGNS 250750Z 30007KT 9999 FEW018 SCT040 13/08 Q1021 NOSIG
EGNS 250720Z 31007KT 9999 FEW018 SCT042 13/08 Q1021 NOSIG
EGNS 250650Z 30006KT 9999 FEW018 BKN046 12/08 Q1021 NOSIG
EGNS 250620Z 29005KT 9999 FEW014 BKN040 12/10 Q1022 NOSIG
EGNS 250550Z 29005KT 9999 FEW014 BKN042 12/09 Q1021 NOSIG
EGNS 250520Z 30004KT 9999 FEW018 BKN042 12/09 Q1022 NOSIG
EGNS 250450Z 32004KT 9999 FEW018 SCT045 10/08 Q1022
EGNS 250350Z 34006KT 9999 FEW030 09/07 Q1022
EGNS 250250Z 33007KT 9999 FEW030 10/07 Q1022
EGNS 250150Z 36005KT 9999 FEW030 10/07 Q1022
EGNS 250050Z 35007KT CAVOK 11/08 Q1023
EGNS 242350Z 36007KT CAVOK 11/08 Q1023
EGNS 242250Z 35008KT CAVOK 11/08 Q1023
EGNS 242150Z 35006KT CAVOK 11/07 Q1023
EGNS 242050Z 34005KT CAVOK 11/07 Q1023
EGNS 242020Z 35007KT CAVOK 12/07 Q1023 NOSIG
EGNS 241950Z 36009KT CAVOK 11/07 Q1023 NOSIG
EGNS 241920Z 35006KT CAVOK 12/07 Q1023 NOSIG
EGNS 241850Z 35005KT 9999 FEW025 12/07 Q1023 NOSIG
EGNS 241820Z 35005KT 9999 FEW025 12/07 Q1023 NOSIG
EGNS 241750Z 33008KT 9999 FEW025 13/07 Q1022 NOSIG
EGNS 241720Z 33009KT 9999 FEW025 14/07 Q1022 NOSIG
EGNS 241650Z 33012KT 9999 FEW025 14/06 Q1022 NOSIG
EGNS 241620Z 35010KT 9999 FEW025 15/06 Q1022 NOSIG
EGNS 241550Z 35010KT 9999 FEW025 15/05 Q1022 NOSIG
EGNS 241520Z 35011KT 9999 FEW025 15/06 Q1022 NOSIG
EGNS 241450Z 35012KT 320V020 9999 FEW025 15/06 Q1022 NOSIG
EGNS 241420Z 35011KT 9999 FEW025 15/07 Q1022 NOSIG
EGNS 241350Z 01011KT 9999 FEW025 15/06 Q1021 NOSIG
EGNS 241320Z 36010KT 9999 FEW025 15/07 Q1021 NOSIG
EGNS 241250Z 01011KT 9999 FEW025 SCT045 15/07 Q1021 NOSIG
EGNS 241220Z 01011KT 9999 FEW025 15/07 Q1021 NOSIG
EGNS 241150Z 01012KT 240V040 9999 FEW025 15/08 Q1021 NOSIG
EGNS 241120Z 36013KT 9999 FEW025 14/07 Q1021 NOSIG
EGNS 241050Z 36012KT 9999 FEW025 14/08 Q1021 NOSIG
EGNS 241020Z 02011KT 9999 FEW024 14/07 Q1021 NOSIG
EGNS 240950Z 02011KT 9999 FEW022 13/08 Q1021 NOSIG
EGNS 240920Z 01009KT 9999 FEW020 14/09 Q1020 NOSIG
EGNS 240850Z 36009KT 9999 FEW020 13/08 Q1020 NOSIG
EGNS 240820Z 36008KT 9999 FEW020 12/08 Q1020 NOSIG
EGNS 240750Z 01009KT 9999 FEW020 11/08 Q1020 NOSIG
EGNS 240720Z 36008KT 9999 FEW020 11/08 Q1019 NOSIG
EGNS 240650Z 36006KT 9999 FEW020 11/08 Q1019 NOSIG
EGNS 240620Z 01006KT 9999 FEW020 11/08 Q1019 NOSIG
EGNS 240550Z 35005KT 9999 SCT030 10/08 Q1019 NOSIG
EGNS 240520Z 34005KT 9999 FEW030 11/08 Q1019 NOSIG
EGNS 240450Z 32007KT 290V360 9999 FEW030 SCT040 11/09 Q1018 NOSIG
EGNS 240420Z 32011KT 9999 FEW030 SCT040 11/09 Q1018 NOSIG
EGNS 240350Z 31006KT 9999 -SHRA FEW030 11/08 Q1018
EGNS 240250Z 32009KT 300V010 9999 FEW030 BKN040 10/08 Q1018
EGNS 240150Z 33013KT 300V010 9999 -SHRA BKN030 11/08 Q1018
EGNS 240050Z 33011KT 9999 -SHRA BKN030 11/09 Q1018
EGNS 232350Z 32008KT 3000 SHRA BKN030 11/09 Q1019
EGNS 232250Z VRB02KT 9999 -SHRA SCT030 BKN045 12/08 Q1018
EGNS 232150Z 32005KT 290V350 9999 FEW030 SCT040 12/07 Q1018